sensor_id;sensor_type;location;lat;lon;timestamp;P1;durP1;ratioP1;P2;durP2;ratioP2
59689;SDS011;45557;50.298;18.930;2022-11-15T00:03:43;41.70;;;23.60;;
59689;SDS011;45557;50.298;18.930;2022-11-15T00:09:24;42.30;;;24.20;;
59689;SDS011;45557;50.298;18.930;2022-11-15T00:15:05;37.40;;;22.90;;
59689;SDS011;45557;50.298;18.930;2022-11-15T00:20:46;38.60;;;22.50;;
59689;SDS011;45557;50.298;18.930;2022-11-15T00:26:26;39.40;;;23.30;;
59689;SDS011;45557;50.298;18.930;2022-11-15T00:32:07;38.30;;;23.90;;
59689;SDS011;45557;50.298;18.930;2022-11-15T00:37:48;31.80;;;20.60;;
59689;SDS011;45557;50.298;18.930;2022-11-15T00:43:28;35.40;;;21.90;;
59689;SDS011;45557;50.298;18.930;2022-11-15T00:49:09;34.80;;;20.70;;
59689;SDS011;45557;50.298;18.930;2022-11-15T00:54:49;28.70;;;18.70;;
59689;SDS011;45557;50.298;18.930;2022-11-15T01:00:29;31.40;;;19.20;;
59689;SDS011;45557;50.298;18.930;2022-11-15T01:06:10;32.90;;;20.70;;
59689;SDS011;45557;50.298;18.930;2022-11-15T01:11:51;36.60;;;21.40;;
59689;SDS011;45557;50.298;18.930;2022-11-15T01:17:32;37.50;;;21.40;;
59689;SDS011;45557;50.298;18.930;2022-11-15T01:23:13;33.90;;;20.80;;
59689;SDS011;45557;50.298;18.930;2022-11-15T01:28:53;30.20;;;20.30;;
59689;SDS011;45557;50.298;18.930;2022-11-15T01:34:34;28.90;;;18.40;;
59689;SDS011;45557;50.298;18.930;2022-11-15T01:40:14;33.00;;;19.40;;
59689;SDS011;45557;50.298;18.930;2022-11-15T01:46:04;30.10;;;18.90;;
59689;SDS011;45557;50.298;18.930;2022-11-15T01:51:54;29.60;;;18.40;;
59689;SDS011;45557;50.298;18.930;2022-11-15T01:57:35;25.80;;;16.00;;
59689;SDS011;45557;50.298;18.930;2022-11-15T02:03:16;27.30;;;16.30;;
59689;SDS011;45557;50.298;18.930;2022-11-15T02:08:57;25.90;;;17.30;;
59689;SDS011;45557;50.298;18.930;2022-11-15T02:14:39;26.90;;;17.00;;
59689;SDS011;45557;50.298;18.930;2022-11-15T02:32:24;24.60;;;15.60;;
59689;SDS011;45557;50.298;18.930;2022-11-15T02:44:45;26.80;;;18.10;;
59689;SDS011;45557;50.298;18.930;2022-11-15T02:50:27;23.20;;;16.10;;
59689;SDS011;45557;50.298;18.930;2022-11-15T02:56:09;24.50;;;15.80;;
59689;SDS011;45557;50.298;18.930;2022-11-15T03:19:56;25.00;;;15.20;;
59689;SDS011;45557;50.298;18.930;2022-11-15T03:25:43;21.70;;;14.20;;
59689;SDS011;45557;50.298;18.930;2022-11-15T03:31:27;25.80;;;16.50;;
59689;SDS011;45557;50.298;18.930;2022-11-15T03:37:32;24.70;;;15.00;;
59689;SDS011;45557;50.298;18.930;2022-11-15T03:49:36;27.20;;;15.90;;
59689;SDS011;45557;50.298;18.930;2022-11-15T03:55:22;24.60;;;15.70;;
59689;SDS011;45557;50.298;18.930;2022-11-15T04:01:03;27.60;;;16.10;;
59689;SDS011;45557;50.298;18.930;2022-11-15T04:06:44;35.00;;;16.40;;
59689;SDS011;45557;50.298;18.930;2022-11-15T04:12:24;25.50;;;16.60;;
59689;SDS011;45557;50.298;18.930;2022-11-15T04:18:10;28.80;;;16.30;;
59689;SDS011;45557;50.298;18.930;2022-11-15T04:23:51;27.40;;;16.50;;
59689;SDS011;45557;50.298;18.930;2022-11-15T04:29:31;26.40;;;16.00;;
59689;SDS011;45557;50.298;18.930;2022-11-15T04:35:15;28.00;;;17.00;;
59689;SDS011;45557;50.298;18.930;2022-11-15T04:40:55;29.20;;;16.40;;
59689;SDS011;45557;50.298;18.930;2022-11-15T04:46:35;29.90;;;17.10;;
59689;SDS011;45557;50.298;18.930;2022-11-15T04:52:16;29.40;;;18.00;;
59689;SDS011;45557;50.298;18.930;2022-11-15T04:57:57;28.60;;;17.00;;
59689;SDS011;45557;50.298;18.930;2022-11-15T05:03:40;27.80;;;16.70;;
59689;SDS011;45557;50.298;18.930;2022-11-15T05:09:40;28.80;;;17.40;;
59689;SDS011;45557;50.298;18.930;2022-11-15T05:15:20;28.00;;;18.20;;
59689;SDS011;45557;50.298;18.930;2022-11-15T05:21:04;30.30;;;19.80;;
59689;SDS011;45557;50.298;18.930;2022-11-15T05:26:46;31.50;;;18.70;;
59689;SDS011;45557;50.298;18.930;2022-11-15T05:32:27;36.80;;;21.20;;
59689;SDS011;45557;50.298;18.930;2022-11-15T05:38:09;34.30;;;20.00;;
59689;SDS011;45557;50.298;18.930;2022-11-15T05:43:50;32.70;;;19.20;;
59689;SDS011;45557;50.298;18.930;2022-11-15T05:49:31;32.30;;;19.80;;
59689;SDS011;45557;50.298;18.930;2022-11-15T05:55:15;34.70;;;20.50;;
59689;SDS011;45557;50.298;18.930;2022-11-15T06:00:56;35.10;;;21.10;;
59689;SDS011;45557;50.298;18.930;2022-11-15T06:06:37;31.60;;;20.90;;
59689;SDS011;45557;50.298;18.930;2022-11-15T06:12:18;37.40;;;22.00;;
59689;SDS011;45557;50.298;18.930;2022-11-15T06:17:58;42.10;;;22.50;;
59689;SDS011;45557;50.298;18.930;2022-11-15T06:23:39;36.50;;;23.00;;
59689;SDS011;45557;50.298;18.930;2022-11-15T06:29:19;44.90;;;25.80;;
59689;SDS011;45557;50.298;18.930;2022-11-15T06:35:00;45.30;;;26.00;;
59689;SDS011;45557;50.298;18.930;2022-11-15T06:40:40;51.20;;;27.20;;
59689;SDS011;45557;50.298;18.930;2022-11-15T06:46:21;47.80;;;26.30;;
59689;SDS011;45557;50.298;18.930;2022-11-15T06:52:01;47.90;;;28.30;;
59689;SDS011;45557;50.298;18.930;2022-11-15T06:57:49;46.40;;;26.00;;
59689;SDS011;45557;50.298;18.930;2022-11-15T07:03:31;49.80;;;29.40;;
59689;SDS011;45557;50.298;18.930;2022-11-15T07:09:14;53.90;;;31.10;;
59689;SDS011;45557;50.298;18.930;2022-11-15T07:14:55;55.60;;;31.80;;
59689;SDS011;45557;50.298;18.930;2022-11-15T07:20:35;44.40;;;27.40;;
59689;SDS011;45557;50.298;18.930;2022-11-15T07:26:15;52.30;;;30.70;;
59689;SDS011;45557;50.298;18.930;2022-11-15T07:31:56;48.20;;;30.50;;
59689;SDS011;45557;50.298;18.930;2022-11-15T07:38:41;50.60;;;31.50;;
59689;SDS011;45557;50.298;18.930;2022-11-15T07:44:43;48.70;;;30.00;;
59689;SDS011;45557;50.298;18.930;2022-11-15T07:50:23;57.20;;;31.60;;
59689;SDS011;45557;50.298;18.930;2022-11-15T07:56:07;61.40;;;36.90;;
59689;SDS011;45557;50.298;18.930;2022-11-15T08:02:13;54.50;;;34.80;;
59689;SDS011;45557;50.298;18.930;2022-11-15T08:07:58;58.40;;;38.00;;
59689;SDS011;45557;50.298;18.930;2022-11-15T08:13:39;58.40;;;37.90;;
59689;SDS011;45557;50.298;18.930;2022-11-15T08:20:20;62.50;;;39.40;;
59689;SDS011;45557;50.298;18.930;2022-11-15T08:27:01;56.00;;;37.90;;
59689;SDS011;45557;50.298;18.930;2022-11-15T08:33:42;50.60;;;36.40;;
59689;SDS011;45557;50.298;18.930;2022-11-15T08:40:23;55.20;;;36.60;;
59689;SDS011;45557;50.298;18.930;2022-11-15T08:46:53;54.40;;;37.50;;
59689;SDS011;45557;50.298;18.930;2022-11-15T08:53:37;46.00;;;33.50;;
59689;SDS011;45557;50.298;18.930;2022-11-15T09:00:24;53.90;;;33.60;;
59689;SDS011;45557;50.298;18.930;2022-11-15T09:06:05;48.10;;;33.20;;
59689;SDS011;45557;50.298;18.930;2022-11-15T09:11:48;38.90;;;28.30;;
59689;SDS011;45557;50.298;18.930;2022-11-15T09:17:29;36.90;;;25.40;;
59689;SDS011;45557;50.298;18.930;2022-11-15T09:23:09;35.30;;;25.70;;
59689;SDS011;45557;50.298;18.930;2022-11-15T09:28:51;33.00;;;23.50;;
59689;SDS011;45557;50.298;18.930;2022-11-15T09:34:32;33.90;;;24.10;;
59689;SDS011;45557;50.298;18.930;2022-11-15T09:40:14;34.80;;;23.30;;
59689;SDS011;45557;50.298;18.930;2022-11-15T09:52:04;29.00;;;20.40;;
59689;SDS011;45557;50.298;18.930;2022-11-15T09:57:32;28.30;;;20.50;;
59689;SDS011;45557;50.298;18.930;2022-11-15T10:08:37;27.10;;;19.50;;
59689;SDS011;45557;50.298;18.930;2022-11-15T10:14:23;30.00;;;20.40;;
59689;SDS011;45557;50.298;18.930;2022-11-15T10:20:55;29.90;;;21.60;;
59689;SDS011;45557;50.298;18.930;2022-11-15T10:26:44;29.30;;;21.00;;
59689;SDS011;45557;50.298;18.930;2022-11-15T10:32:10;31.50;;;20.20;;
59689;SDS011;45557;50.298;18.930;2022-11-15T10:38:33;154.60;;;86.30;;
59689;SDS011;45557;50.298;18.930;2022-11-15T10:44:30;44.00;;;28.60;;
59689;SDS011;45557;50.298;18.930;2022-11-15T10:50:55;31.90;;;20.20;;
59689;SDS011;45557;50.298;18.930;2022-11-15T10:57:26;29.20;;;21.10;;
59689;SDS011;45557;50.298;18.930;2022-11-15T11:08:42;29.40;;;20.00;;
59689;SDS011;45557;50.298;18.930;2022-11-15T11:15:24;29.10;;;19.40;;
59689;SDS011;45557;50.298;18.930;2022-11-15T11:33:14;27.90;;;19.30;;
59689;SDS011;45557;50.298;18.930;2022-11-15T11:44:25;30.70;;;21.60;;
59689;SDS011;45557;50.298;18.930;2022-11-15T11:49:55;34.10;;;22.90;;
59689;SDS011;45557;50.298;18.930;2022-11-15T12:01:24;29.20;;;19.90;;
59689;SDS011;45557;50.298;18.930;2022-11-15T12:06:59;24.90;;;17.50;;
59689;SDS011;45557;50.298;18.930;2022-11-15T12:13:24;25.70;;;17.60;;
59689;SDS011;45557;50.298;18.930;2022-11-15T12:20:03;25.20;;;18.00;;
59689;SDS011;45557;50.298;18.930;2022-11-15T12:26:41;24.50;;;16.70;;
59689;SDS011;45557;50.298;18.930;2022-11-15T12:33:30;28.40;;;19.00;;
59689;SDS011;45557;50.298;18.930;2022-11-15T12:45:40;24.80;;;18.40;;
59689;SDS011;45557;50.298;18.930;2022-11-15T12:51:04;24.30;;;18.20;;
59689;SDS011;45557;50.298;18.930;2022-11-15T12:56:30;28.10;;;19.90;;
59689;SDS011;45557;50.298;18.930;2022-11-15T13:01:55;28.50;;;20.60;;
59689;SDS011;45557;50.298;18.930;2022-11-15T13:12:59;27.10;;;20.40;;
59689;SDS011;45557;50.298;18.930;2022-11-15T13:18:32;30.00;;;20.70;;
59689;SDS011;45557;50.298;18.930;2022-11-15T13:24:00;34.20;;;24.10;;
59689;SDS011;45557;50.298;18.930;2022-11-15T13:29:22;33.80;;;22.90;;
59689;SDS011;45557;50.298;18.930;2022-11-15T13:34:49;33.90;;;23.90;;
59689;SDS011;45557;50.298;18.930;2022-11-15T13:40:20;33.90;;;22.90;;
59689;SDS011;45557;50.298;18.930;2022-11-15T13:46:09;34.00;;;23.10;;
59689;SDS011;45557;50.298;18.930;2022-11-15T13:51:47;34.00;;;23.80;;
59689;SDS011;45557;50.298;18.930;2022-11-15T13:57:19;33.40;;;24.00;;
59689;SDS011;45557;50.298;18.930;2022-11-15T14:02:57;34.30;;;24.30;;
59689;SDS011;45557;50.298;18.930;2022-11-15T14:08:30;38.20;;;25.90;;
59689;SDS011;45557;50.298;18.930;2022-11-15T14:15:17;40.20;;;28.30;;
59689;SDS011;45557;50.298;18.930;2022-11-15T14:21:27;38.50;;;27.00;;
59689;SDS011;45557;50.298;18.930;2022-11-15T14:27:43;41.50;;;30.30;;
59689;SDS011;45557;50.298;18.930;2022-11-15T14:38:51;46.40;;;28.30;;
59689;SDS011;45557;50.298;18.930;2022-11-15T14:44:15;40.70;;;29.20;;
59689;SDS011;45557;50.298;18.930;2022-11-15T14:49:40;43.70;;;31.40;;
59689;SDS011;45557;50.298;18.930;2022-11-15T14:55:03;41.70;;;31.40;;
59689;SDS011;45557;50.298;18.930;2022-11-15T15:01:46;43.20;;;29.90;;
59689;SDS011;45557;50.298;18.930;2022-11-15T15:08:32;46.20;;;33.50;;
59689;SDS011;45557;50.298;18.930;2022-11-15T15:13:58;48.60;;;34.10;;
59689;SDS011;45557;50.298;18.930;2022-11-15T15:20:41;46.00;;;34.00;;
59689;SDS011;45557;50.298;18.930;2022-11-15T15:27:24;47.20;;;34.50;;
59689;SDS011;45557;50.298;18.930;2022-11-15T15:34:15;56.50;;;40.20;;
59689;SDS011;45557;50.298;18.930;2022-11-15T15:40:58;54.00;;;38.60;;
59689;SDS011;45557;50.298;18.930;2022-11-15T15:47:42;57.50;;;39.40;;
59689;SDS011;45557;50.298;18.930;2022-11-15T15:53:07;61.90;;;44.40;;
59689;SDS011;45557;50.298;18.930;2022-11-15T15:58:32;57.80;;;42.90;;
59689;SDS011;45557;50.298;18.930;2022-11-15T16:05:15;77.60;;;53.80;;
59689;SDS011;45557;50.298;18.930;2022-11-15T16:11:39;66.90;;;47.90;;
59689;SDS011;45557;50.298;18.930;2022-11-15T16:18:24;72.10;;;49.00;;
59689;SDS011;45557;50.298;18.930;2022-11-15T16:23:46;70.10;;;51.30;;
59689;SDS011;45557;50.298;18.930;2022-11-15T16:30:11;90.50;;;63.20;;
59689;SDS011;45557;50.298;18.930;2022-11-15T16:36:57;74.10;;;52.90;;
59689;SDS011;45557;50.298;18.930;2022-11-15T16:43:45;67.60;;;49.30;;
59689;SDS011;45557;50.298;18.930;2022-11-15T16:50:30;64.10;;;43.80;;
59689;SDS011;45557;50.298;18.930;2022-11-15T16:57:10;65.30;;;45.60;;
59689;SDS011;45557;50.298;18.930;2022-11-15T17:03:54;67.90;;;45.90;;
59689;SDS011;45557;50.298;18.930;2022-11-15T17:10:19;71.50;;;50.00;;
59689;SDS011;45557;50.298;18.930;2022-11-15T17:16:24;67.00;;;49.00;;
59689;SDS011;45557;50.298;18.930;2022-11-15T17:21:47;73.80;;;49.40;;
59689;SDS011;45557;50.298;18.930;2022-11-15T17:27:12;78.90;;;50.60;;
59689;SDS011;45557;50.298;18.930;2022-11-15T17:32:37;75.70;;;51.00;;
59689;SDS011;45557;50.298;18.930;2022-11-15T17:37:59;73.30;;;49.10;;
59689;SDS011;45557;50.298;18.930;2022-11-15T17:43:20;71.20;;;48.00;;
59689;SDS011;45557;50.298;18.930;2022-11-15T17:48:42;64.20;;;46.80;;
59689;SDS011;45557;50.298;18.930;2022-11-15T17:54:05;66.20;;;45.60;;
59689;SDS011;45557;50.298;18.930;2022-11-15T17:59:34;60.10;;;43.70;;
59689;SDS011;45557;50.298;18.930;2022-11-15T18:05:01;63.40;;;46.40;;
59689;SDS011;45557;50.298;18.930;2022-11-15T18:10:23;65.10;;;45.00;;
59689;SDS011;45557;50.298;18.930;2022-11-15T18:15:52;68.90;;;47.50;;
59689;SDS011;45557;50.298;18.930;2022-11-15T18:21:16;80.90;;;57.80;;
59689;SDS011;45557;50.298;18.930;2022-11-15T18:26:40;81.70;;;57.00;;
59689;SDS011;45557;50.298;18.930;2022-11-15T18:32:03;75.70;;;51.90;;
59689;SDS011;45557;50.298;18.930;2022-11-15T18:37:31;71.80;;;51.20;;
59689;SDS011;45557;50.298;18.930;2022-11-15T18:42:53;103.80;;;75.20;;
59689;SDS011;45557;50.298;18.930;2022-11-15T18:48:15;88.60;;;62.40;;
59689;SDS011;45557;50.298;18.930;2022-11-15T18:53:38;80.10;;;56.80;;
59689;SDS011;45557;50.298;18.930;2022-11-15T18:59:01;79.30;;;54.90;;
59689;SDS011;45557;50.298;18.930;2022-11-15T19:04:24;81.00;;;57.20;;
59689;SDS011;45557;50.298;18.930;2022-11-15T19:09:46;74.60;;;55.60;;
59689;SDS011;45557;50.298;18.930;2022-11-15T19:15:09;81.10;;;56.80;;
59689;SDS011;45557;50.298;18.930;2022-11-15T19:20:30;79.80;;;55.50;;
59689;SDS011;45557;50.298;18.930;2022-11-15T19:25:56;80.70;;;57.40;;
59689;SDS011;45557;50.298;18.930;2022-11-15T19:31:20;75.00;;;54.30;;
59689;SDS011;45557;50.298;18.930;2022-11-15T19:36:44;87.20;;;58.50;;
59689;SDS011;45557;50.298;18.930;2022-11-15T19:42:07;90.60;;;57.70;;
59689;SDS011;45557;50.298;18.930;2022-11-15T19:48:21;81.20;;;57.00;;
59689;SDS011;45557;50.298;18.930;2022-11-15T19:53:44;85.10;;;57.80;;
59689;SDS011;45557;50.298;18.930;2022-11-15T19:59:06;74.40;;;54.30;;
59689;SDS011;45557;50.298;18.930;2022-11-15T20:04:28;81.60;;;54.50;;
59689;SDS011;45557;50.298;18.930;2022-11-15T20:09:50;77.70;;;55.00;;
59689;SDS011;45557;50.298;18.930;2022-11-15T20:15:12;83.00;;;56.10;;
59689;SDS011;45557;50.298;18.930;2022-11-15T20:20:35;85.20;;;56.50;;
59689;SDS011;45557;50.298;18.930;2022-11-15T20:25:56;83.20;;;55.20;;
59689;SDS011;45557;50.298;18.930;2022-11-15T20:31:18;84.60;;;58.10;;
59689;SDS011;45557;50.298;18.930;2022-11-15T20:36:42;80.20;;;55.60;;
59689;SDS011;45557;50.298;18.930;2022-11-15T20:42:04;82.80;;;57.10;;
59689;SDS011;45557;50.298;18.930;2022-11-15T20:48:28;83.60;;;57.90;;
59689;SDS011;45557;50.298;18.930;2022-11-15T20:53:51;87.80;;;58.60;;
59689;SDS011;45557;50.298;18.930;2022-11-15T20:59:15;84.90;;;59.60;;
59689;SDS011;45557;50.298;18.930;2022-11-15T21:05:59;74.40;;;55.90;;
59689;SDS011;45557;50.298;18.930;2022-11-15T21:11:33;80.60;;;55.10;;
59689;SDS011;45557;50.298;18.930;2022-11-15T21:18:16;78.10;;;55.40;;
59689;SDS011;45557;50.298;18.930;2022-11-15T21:24:05;80.00;;;57.80;;
59689;SDS011;45557;50.298;18.930;2022-11-15T21:29:47;83.30;;;58.00;;
59689;SDS011;45557;50.298;18.930;2022-11-15T21:36:11;72.90;;;52.00;;
59689;SDS011;45557;50.298;18.930;2022-11-15T21:41:33;80.20;;;53.70;;
59689;SDS011;45557;50.298;18.930;2022-11-15T21:46:55;82.40;;;57.90;;
59689;SDS011;45557;50.298;18.930;2022-11-15T21:52:17;87.10;;;57.90;;
59689;SDS011;45557;50.298;18.930;2022-11-15T21:57:39;81.20;;;54.30;;
59689;SDS011;45557;50.298;18.930;2022-11-15T22:03:01;83.60;;;58.80;;
59689;SDS011;45557;50.298;18.930;2022-11-15T22:08:23;81.20;;;58.10;;
59689;SDS011;45557;50.298;18.930;2022-11-15T22:13:46;83.20;;;57.40;;
59689;SDS011;45557;50.298;18.930;2022-11-15T22:19:08;77.50;;;55.40;;
59689;SDS011;45557;50.298;18.930;2022-11-15T22:24:30;78.00;;;54.50;;
59689;SDS011;45557;50.298;18.930;2022-11-15T22:29:52;78.90;;;53.30;;
59689;SDS011;45557;50.298;18.930;2022-11-15T22:35:14;79.50;;;53.80;;
59689;SDS011;45557;50.298;18.930;2022-11-15T22:40:36;79.60;;;55.00;;
59689;SDS011;45557;50.298;18.930;2022-11-15T22:45:59;81.70;;;53.60;;
59689;SDS011;45557;50.298;18.930;2022-11-15T22:51:22;82.00;;;54.80;;
59689;SDS011;45557;50.298;18.930;2022-11-15T22:56:44;80.40;;;54.80;;
59689;SDS011;45557;50.298;18.930;2022-11-15T23:02:09;81.60;;;55.30;;
59689;SDS011;45557;50.298;18.930;2022-11-15T23:07:31;81.10;;;55.40;;
59689;SDS011;45557;50.298;18.930;2022-11-15T23:13:04;71.90;;;52.70;;
59689;SDS011;45557;50.298;18.930;2022-11-15T23:18:38;77.90;;;53.90;;
59689;SDS011;45557;50.298;18.930;2022-11-15T23:24:04;82.50;;;56.30;;
59689;SDS011;45557;50.298;18.930;2022-11-15T23:29:26;82.00;;;54.80;;
59689;SDS011;45557;50.298;18.930;2022-11-15T23:34:50;81.70;;;54.80;;
59689;SDS011;45557;50.298;18.930;2022-11-15T23:41:31;79.20;;;55.20;;
59689;SDS011;45557;50.298;18.930;2022-11-15T23:47:21;84.30;;;55.50;;
59689;SDS011;45557;50.298;18.930;2022-11-15T23:53:08;81.70;;;56.00;;
59689;SDS011;45557;50.298;18.930;2022-11-15T23:58:30;79.40;;;53.40;;
